Time;durP1;ratioP1;P1;durP2;ratioP2;P2;SDS_P1;SDS_P2;PMS_P1;PMS_P2;Temp;Humidity;BMP_temperature;BMP_pressure;BME280_temperature;BME280_humidity;BME280_pressure;Samples;Min_cycle;Max_cycle;Signal;HPM_P1;HPM_P2
2023/05/11 00:01:31;;;;;;;2.65;0.68;;;10.80;81.70;;;;;;5094231;28;20052;-84
2023/05/11 00:03:57;;;;;;;1.80;0.50;;;10.80;81.70;;;;;;5093615;28;20035;-85
2023/05/11 00:06:23;;;;;;;0.50;0.40;;;10.70;81.60;;;;;;5093627;28;20028;-84
2023/05/11 00:08:48;;;;;;;0.38;0.30;;;10.70;81.70;;;;;;5093919;28;20053;-82
2023/05/11 00:11:14;;;;;;;1.40;0.70;;;10.60;81.70;;;;;;5093817;28;20078;-83
2023/05/11 00:13:39;;;;;;;1.00;0.30;;;10.70;81.90;;;;;;5093912;28;20024;-82
2023/05/11 00:16:05;;;;;;;0.73;0.60;;;10.70;81.90;;;;;;5093651;28;20024;-85
2023/05/11 00:18:31;;;;;;;3.00;0.60;;;10.70;81.80;;;;;;5093663;28;20024;-82
2023/05/11 00:20:56;;;;;;;3.95;0.60;;;10.70;82.00;;;;;;5093700;28;20035;-80
2023/05/11 00:23:22;;;;;;;2.70;0.57;;;10.70;82.10;;;;;;5093737;28;20080;-84
2023/05/11 00:25:47;;;;;;;1.17;0.43;;;10.70;81.80;;;;;;5094219;28;20020;-83
2023/05/11 00:28:13;;;;;;;1.77;0.77;;;10.70;81.80;;;;;;5093985;28;20051;-82
2023/05/11 00:30:40;;;;;;;1.05;0.50;;;10.80;81.70;;;;;;5093815;28;20141;-81
2023/05/11 00:33:05;;;;;;;2.17;0.40;;;10.80;82.40;;;;;;5076109;28;20024;-85
2023/05/11 00:35:31;;;;;;;1.00;0.70;;;10.90;81.70;;;;;;5094671;28;20044;-82
2023/05/11 00:37:57;;;;;;;2.47;0.60;;;10.90;81.60;;;;;;5094017;28;20024;-82
2023/05/11 00:40:23;;;;;;;3.00;0.73;;;11.00;81.50;;;;;;5076163;28;20562;-74
2023/05/11 00:42:48;;;;;;;1.58;0.25;;;11.00;81.50;;;;;;5093115;28;20020;-74
2023/05/11 00:45:14;;;;;;;1.67;0.60;;;11.00;81.40;;;;;;5097506;28;20035;-73
2023/05/11 00:47:40;;;;;;;0.68;0.52;;;11.10;81.40;;;;;;5097090;28;20078;-73
2023/05/11 00:50:07;;;;;;;1.42;0.50;;;11.10;81.40;;;;;;5097728;28;20557;-72
2023/05/11 00:52:33;;;;;;;0.60;0.40;;;11.10;81.40;;;;;;5097795;28;20028;-80
2023/05/11 00:54:59;;;;;;;0.70;0.60;;;11.10;81.40;;;;;;5079736;28;20523;-73
2023/05/11 00:57:25;;;;;;;0.70;0.52;;;11.10;81.40;;;;;;5096665;28;20028;-72
2023/05/11 00:59:51;;;;;;;0.57;0.38;;;11.10;81.30;;;;;;5096580;28;20036;-72
2023/05/11 01:02:17;;;;;;;1.33;0.60;;;11.10;81.10;;;;;;5099916;28;20465;-73
2023/05/11 01:04:43;;;;;;;1.08;0.50;;;11.10;81.00;;;;;;5102792;28;20024;-72
2023/05/11 01:07:22;;;;;;;0.73;0.30;;;11.10;81.20;;;;;;5104841;28;20031;-73
2023/05/11 01:10:13;;;;;;;1.92;0.40;;;11.10;81.40;;;;;;5105479;28;20027;-72
2023/05/11 01:13:00;;;;;;;1.42;0.38;;;11.00;81.50;;;;;;5104831;28;20028;-72
2023/05/11 01:15:28;;;;;;;2.05;0.50;;;11.00;81.40;;;;;;5104490;28;20107;-72
2023/05/11 01:18:13;;;;;;;0.47;0.40;;;11.00;81.40;;;;;;5105167;28;20028;-72
2023/05/11 01:20:45;;;;;;;1.60;0.73;;;11.10;81.50;;;;;;5108783;28;20032;-76
2023/05/11 01:23:35;;;;;;;2.05;0.50;;;11.10;81.50;;;;;;5106775;28;20028;-73
2023/05/11 01:26:28;;;;;;;2.30;0.60;;;11.10;81.30;;;;;;5098214;28;20031;-72
2023/05/11 01:29:28;;;;;;;1.27;0.40;;;11.00;81.20;;;;;;5096014;28;20051;-72
2023/05/11 01:31:55;;;;;;;1.00;0.32;;;11.10;81.50;;;;;;5096246;28;20492;-76
2023/05/11 01:34:24;;;;;;;3.08;0.85;;;11.00;81.30;;;;;;5096072;28;20028;-72
2023/05/11 01:36:58;;;;;;;3.92;0.70;;;11.00;81.50;;;;;;5095599;28;20404;-72
2023/05/11 01:39:33;;;;;;;1.00;0.60;;;11.00;81.70;;;;;;5095902;28;20114;-72
2023/05/11 01:42:02;;;;;;;;;;;11.00;81.80;;;;;;5096319;28;20066;-72
2023/05/11 01:44:30;;;;;;;1.10;0.50;;;11.00;81.80;;;;;;5095811;28;19904;-72
2023/05/11 01:46:59;;;;;;;1.30;0.70;;;11.00;81.90;;;;;;5095644;28;20567;-73
2023/05/11 01:49:26;;;;;;;1.63;0.93;;;11.00;82.10;;;;;;5095522;28;20069;-72
2023/05/11 01:51:53;;;;;;;2.58;0.85;;;11.00;82.10;;;;;;5095555;28;20028;-73
2023/05/11 01:54:20;;;;;;;2.60;1.23;;;11.00;82.10;;;;;;5095126;28;20035;-73
2023/05/11 01:56:47;;;;;;;2.60;1.17;;;11.00;81.80;;;;;;5094878;28;20027;-73
2023/05/11 01:59:13;;;;;;;2.05;1.08;;;11.00;81.80;;;;;;5095854;28;20036;-80
2023/05/11 02:01:40;;;;;;;1.02;0.70;;;11.00;81.80;;;;;;5096109;28;20024;-81
2023/05/11 02:04:07;;;;;;;2.30;0.55;;;11.00;81.90;;;;;;5113479;28;20464;-73
2023/05/11 02:06:36;;;;;;;0.47;0.40;;;11.10;82.00;;;;;;5095353;28;20549;-73
2023/05/11 02:09:02;;;;;;;1.35;0.50;;;11.10;81.90;;;;;;5095545;28;20035;-73
2023/05/11 02:11:29;;;;;;;1.00;0.60;;;11.00;81.80;;;;;;5111033;28;20492;-73
2023/05/11 02:13:57;;;;;;;0.90;0.70;;;11.00;81.90;;;;;;5095194;28;20066;-73
2023/05/11 02:16:24;;;;;;;1.00;0.65;;;11.00;81.80;;;;;;5095252;28;20379;-73
2023/05/11 02:18:51;;;;;;;2.85;0.90;;;11.00;82.00;;;;;;5095022;28;20115;-73
2023/05/11 02:21:18;;;;;;;1.75;0.75;;;11.00;82.10;;;;;;5095278;28;20024;-86
2023/05/11 02:23:46;;;;;;;2.72;1.60;;;10.90;82.20;;;;;;5095562;28;20024;-84
2023/05/11 02:26:14;;;;;;;2.90;1.10;;;10.90;82.10;;;;;;5095697;28;20061;-85
2023/05/11 02:28:39;;;;;;;2.10;1.45;;;10.90;82.20;;;;;;5095422;28;20465;-86
2023/05/11 02:31:09;;;;;;;3.13;1.48;;;10.90;82.20;;;;;;5095355;28;20028;-82
2023/05/11 02:33:42;;;;;;;2.38;0.98;;;11.00;82.10;;;;;;5095316;28;20099;-79
2023/05/11 02:36:08;;;;;;;2.42;0.73;;;11.00;82.00;;;;;;5094650;28;20396;-79
2023/05/11 02:38:34;;;;;;;1.50;0.50;;;11.00;81.90;;;;;;5076746;28;20028;-74
2023/05/11 02:41:04;;;;;;;0.55;0.40;;;11.00;81.80;;;;;;5094683;28;20032;-75
2023/05/11 02:43:35;;;;;;;1.55;0.45;;;11.00;81.70;;;;;;5094760;28;20024;-84
2023/05/11 02:46:13;;;;;;;0.45;0.30;;;11.00;81.50;;;;;;5095302;28;20030;-86
2023/05/11 02:48:43;;;;;;;1.20;0.40;;;10.90;81.50;;;;;;5095025;28;20487;-80
2023/05/11 02:51:11;;;;;;;0.47;0.30;;;10.90;81.60;;;;;;5095681;28;20031;-79
2023/05/11 02:53:38;;;;;;;0.40;0.40;;;11.00;81.70;;;;;;5095297;28;20028;-80
2023/05/11 02:56:05;;;;;;;1.75;0.50;;;11.00;81.60;;;;;;5094818;28;20081;-85
2023/05/11 02:58:31;;;;;;;1.48;0.40;;;11.00;81.60;;;;;;5094507;28;20115;-84
2023/05/11 03:00:57;;;;;;;1.10;0.30;;;11.00;81.60;;;;;;5094818;28;20111;-85
2023/05/11 03:03:23;;;;;;;3.28;0.40;;;10.90;81.60;;;;;;5094603;28;20020;-84
2023/05/11 03:05:50;;;;;;;0.73;0.40;;;10.90;81.80;;;;;;5094244;28;20024;-84
2023/05/11 03:08:15;;;;;;;1.95;0.50;;;11.00;81.90;;;;;;5094639;28;20023;-81
2023/05/11 03:10:41;;;;;;;0.90;0.30;;;10.90;82.00;;;;;;5095835;28;20024;-81
2023/05/11 03:13:08;;;;;;;1.15;0.40;;;10.90;82.10;;;;;;5095979;28;20027;-86
2023/05/11 03:15:35;;;;;;;1.13;0.80;;;10.90;82.00;;;;;;5095708;28;20028;-84
2023/05/11 03:18:01;;;;;;;0.68;0.50;;;10.90;82.10;;;;;;5096738;28;20012;-87
2023/05/11 03:20:29;;;;;;;0.70;0.70;;;10.90;82.30;;;;;;5095617;28;20112;-87
2023/05/11 03:22:55;;;;;;;0.82;0.63;;;10.90;82.30;;;;;;5076950;28;20410;-81
2023/05/11 03:25:22;;;;;;;4.93;0.60;;;11.00;82.20;;;;;;5094815;28;20073;-73
2023/05/11 03:27:49;;;;;;;2.15;0.40;;;11.00;82.30;;;;;;5094386;28;20421;-83
2023/05/11 03:30:16;;;;;;;3.00;0.50;;;11.00;82.30;;;;;;5095455;28;20074;-86
2023/05/11 03:32:42;;;;;;;1.05;0.60;;;11.00;82.20;;;;;;5094904;28;20020;-77
2023/05/11 03:35:08;;;;;;;0.80;0.75;;;11.10;82.30;;;;;;5076725;28;20357;-74
2023/05/11 03:37:38;;;;;;;0.93;0.60;;;11.10;82.40;;;;;;5095208;28;20046;-72
2023/05/11 03:40:06;;;;;;;0.75;0.60;;;11.10;82.40;;;;;;5093942;28;20036;-83
2023/05/11 03:42:33;;;;;;;0.80;0.57;;;11.00;82.30;;;;;;5078266;28;20025;-85
2023/05/11 03:45:01;;;;;;;2.42;0.70;;;11.10;82.50;;;;;;5096356;28;20028;-85
2023/05/11 03:47:28;;;;;;;2.25;0.77;;;11.10;82.50;;;;;;5095664;28;20031;-85
2023/05/11 03:49:57;;;;;;;1.75;0.85;;;11.00;82.40;;;;;;5095875;28;20480;-84
2023/05/11 03:52:23;;;;;;;2.67;0.70;;;11.00;82.60;;;;;;5095184;28;20044;-74
2023/05/11 03:54:49;;;;;;;1.23;0.63;;;11.00;82.70;;;;;;5094965;28;20064;-85
2023/05/11 03:57:15;;;;;;;1.60;1.00;;;11.00;82.80;;;;;;5095643;28;20097;-86
2023/05/11 03:59:40;;;;;;;4.10;0.88;;;11.00;82.80;;;;;;5096324;28;20040;-88
2023/05/11 04:02:06;;;;;;;0.93;0.47;;;11.10;82.60;;;;;;5095975;28;20473;-86
2023/05/11 04:04:32;;;;;;;2.00;0.40;;;11.00;82.30;;;;;;5095568;28;20054;-86
2023/05/11 04:06:58;;;;;;;2.67;0.80;;;11.10;82.40;;;;;;5095813;28;20024;-87
2023/05/11 04:09:24;;;;;;;1.48;0.77;;;11.10;82.20;;;;;;5094680;28;20028;-84
2023/05/11 04:11:50;;;;;;;2.58;0.65;;;11.10;82.10;;;;;;5094020;28;20063;-84
2023/05/11 04:14:19;;;;;;;1.40;0.50;;;11.10;81.80;;;;;;5094102;28;20046;-77
2023/05/11 04:16:45;;;;;;;0.70;0.60;;;11.20;81.90;;;;;;5093656;28;20020;-84
2023/05/11 04:19:10;;;;;;;2.05;1.27;;;11.10;82.00;;;;;;5096041;28;20043;-79
2023/05/11 04:21:36;;;;;;;1.52;1.00;;;11.10;81.90;;;;;;5097678;28;20081;-84
2023/05/11 04:24:02;;;;;;;1.77;1.00;;;11.20;82.00;;;;;;5098171;28;20024;-84
2023/05/11 04:26:27;;;;;;;1.77;0.90;;;11.10;82.00;;;;;;5097974;28;20024;-82
2023/05/11 04:28:53;;;;;;;4.72;1.00;;;11.10;82.00;;;;;;5098247;28;20103;-85
2023/05/11 04:31:19;;;;;;;2.28;1.00;;;11.10;82.00;;;;;;5098107;28;20040;-82
2023/05/11 04:33:45;;;;;;;0.90;0.68;;;11.10;81.90;;;;;;5097396;28;20055;-80
2023/05/11 04:36:10;;;;;;;6.60;2.00;;;11.10;82.00;;;;;;5097284;28;20048;-81
2023/05/11 04:38:36;;;;;;;6.80;3.35;;;11.10;82.00;;;;;;5097348;28;20093;-80
2023/05/11 04:41:06;;;;;;;2.50;2.00;;;11.10;82.00;;;;;;5097425;28;20039;-83
2023/05/11 04:43:32;;;;;;;3.63;1.50;;;11.10;82.10;;;;;;5097480;28;20526;-81
2023/05/11 04:45:58;;;;;;;1.38;0.85;;;11.10;82.00;;;;;;5097122;28;20028;-80
2023/05/11 04:48:25;;;;;;;2.95;1.20;;;11.10;82.00;;;;;;5097077;28;20430;-77
2023/05/11 04:50:51;;;;;;;2.10;1.30;;;11.10;82.10;;;;;;5096905;28;20107;-83
2023/05/11 04:53:16;;;;;;;1.90;1.40;;;11.00;82.00;;;;;;5097145;28;20533;-81
2023/05/11 04:55:42;;;;;;;3.08;1.50;;;11.10;82.20;;;;;;5101305;28;20028;-81
2023/05/11 04:58:08;;;;;;;2.30;1.65;;;11.10;82.20;;;;;;5097223;28;20028;-81
2023/05/11 05:00:35;;;;;;;6.72;1.90;;;11.10;82.10;;;;;;5113289;28;20032;-81
2023/05/11 05:03:00;;;;;;;4.07;1.90;;;11.20;81.90;;;;;;5079413;28;20115;-84
2023/05/11 05:05:26;;;;;;;2.60;1.60;;;11.20;81.80;;;;;;5097001;28;20067;-80
2023/05/11 05:07:52;;;;;;;2.70;2.00;;;11.20;81.60;;;;;;5096916;28;20028;-80
2023/05/11 05:10:17;;;;;;;5.00;2.05;;;11.20;81.50;;;;;;5096733;28;20027;-77
2023/05/11 05:12:43;;;;;;;3.33;2.08;;;11.30;81.50;;;;;;5096530;28;20016;-79
2023/05/11 05:15:09;;;;;;;3.72;1.60;;;11.30;81.30;;;;;;5096426;28;20027;-82
2023/05/11 05:17:35;;;;;;;2.05;1.67;;;11.30;81.10;;;;;;5096586;28;20016;-79
2023/05/11 05:20:02;;;;;;;6.03;2.05;;;11.30;81.00;;;;;;5096447;28;20040;-81
2023/05/11 05:22:28;;;;;;;6.47;2.38;;;11.30;81.00;;;;;;5096378;28;20062;-84
2023/05/11 05:24:53;;;;;;;3.58;2.10;;;11.40;80.50;;;;;;5096708;28;20032;-84
2023/05/11 05:27:19;;;;;;;4.07;2.55;;;11.30;80.40;;;;;;5096293;28;20024;-80
2023/05/11 05:29:44;;;;;;;3.95;2.15;;;11.40;80.20;;;;;;5096127;28;20500;-77
2023/05/11 05:32:10;;;;;;;2.50;1.50;;;11.50;79.60;;;;;;5096038;28;20465;-79
2023/05/11 05:34:35;;;;;;;4.50;1.70;;;11.40;79.40;;;;;;5112088;28;20020;-81
2023/05/11 05:37:01;;;;;;;4.22;1.80;;;11.40;78.90;;;;;;5096310;28;20055;-85
2023/05/11 05:39:26;;;;;;;3.25;1.52;;;11.40;78.00;;;;;;5096440;28;20028;-84
2023/05/11 05:41:52;;;;;;;4.20;1.42;;;11.40;77.90;;;;;;5096252;28;20029;-83
2023/05/11 05:44:17;;;;;;;3.58;2.10;;;11.30;77.40;;;;;;5095837;28;20096;-82
2023/05/11 05:46:43;;;;;;;4.10;2.00;;;11.30;77.60;;;;;;5095968;28;20024;-79
2023/05/11 05:49:09;;;;;;;1.70;1.23;;;11.30;77.60;;;;;;5095748;28;20020;-80
2023/05/11 05:51:34;;;;;;;3.83;1.38;;;11.20;78.00;;;;;;5095587;28;20044;-74
2023/05/11 05:54:00;;;;;;;3.08;1.48;;;11.10;78.30;;;;;;5095447;28;20028;-80
2023/05/11 05:56:26;;;;;;;2.90;1.25;;;11.10;78.40;;;;;;5099191;28;20039;-80
2023/05/11 05:58:51;;;;;;;3.13;1.45;;;11.20;78.60;;;;;;5097040;28;20024;-76
2023/05/11 06:01:17;;;;;;;2.25;1.05;;;11.20;78.50;;;;;;5095524;28;20024;-73
2023/05/11 06:03:44;;;;;;;6.13;1.30;;;11.10;78.30;;;;;;5095331;28;20073;-73
2023/05/11 06:06:10;;;;;;;4.82;1.25;;;11.20;78.30;;;;;;5095200;28;20032;-80
2023/05/11 06:08:36;;;;;;;3.10;1.02;;;11.10;79.10;;;;;;5095520;28;20468;-81
2023/05/11 06:11:01;;;;;;;5.28;1.20;;;11.20;77.70;;;;;;5095292;28;20086;-72
2023/05/11 06:13:27;;;;;;;4.60;1.20;;;11.20;77.80;;;;;;5095236;28;20031;-75
2023/05/11 06:15:52;;;;;;;6.68;1.67;;;11.20;78.30;;;;;;5096076;28;20028;-75
2023/05/11 06:18:18;;;;;;;2.60;1.42;;;11.20;78.70;;;;;;5111026;28;20077;-74
2023/05/11 06:20:44;;;;;;;4.05;1.20;;;11.20;79.20;;;;;;5110832;28;20051;-75
2023/05/11 06:23:10;;;;;;;3.88;0.90;;;11.30;78.90;;;;;;5111575;28;20039;-75
2023/05/11 06:25:36;;;;;;;3.10;0.90;;;11.40;78.30;;;;;;5110675;28;20032;-73
2023/05/11 06:28:01;;;;;;;3.00;1.10;;;11.50;78.00;;;;;;5076569;28;20023;-72
2023/05/11 06:30:28;;;;;;;5.43;1.10;;;11.60;77.40;;;;;;5110529;28;20019;-73
2023/05/11 06:32:54;;;;;;;2.72;0.85;;;11.70;76.90;;;;;;5110633;28;20092;-73
2023/05/11 06:35:20;;;;;;;1.88;0.90;;;11.70;76.30;;;;;;5110187;28;20442;-73
2023/05/11 06:37:45;;;;;;;3.70;1.60;;;11.80;75.60;;;;;;5094482;28;20036;-73
2023/05/11 06:40:12;;;;;;;4.78;1.13;;;11.80;76.00;;;;;;5094420;28;20043;-73
2023/05/11 06:42:37;;;;;;;2.70;1.23;;;11.80;75.40;;;;;;5093941;28;20028;-73
2023/05/11 06:45:03;;;;;;;4.68;1.48;;;11.90;75.20;;;;;;5094447;28;20031;-76
2023/05/11 06:47:29;;;;;;;10.15;2.60;;;11.80;74.80;;;;;;5094977;28;20027;-84
2023/05/11 06:49:54;;;;;;;4.68;2.00;;;12.10;85.90;;;;;;5094347;28;20020;-76
2023/05/11 06:52:20;;;;;;;3.00;1.25;;;12.30;82.30;;;;;;5094209;28;20099;-75
2023/05/11 06:54:46;;;;;;;3.80;1.20;;;12.50;78.40;;;;;;5094189;28;20028;-74
2023/05/11 06:57:11;;;;;;;2.90;1.10;;;12.60;76.20;;;;;;5094275;28;20024;-78
2023/05/11 06:59:37;;;;;;;2.47;1.10;;;12.60;75.70;;;;;;5094077;28;20070;-77
2023/05/11 07:02:02;;;;;;;4.63;1.45;;;12.80;75.50;;;;;;5094103;28;20024;-76
2023/05/11 07:04:28;;;;;;;2.97;1.00;;;12.90;75.00;;;;;;5094102;28;20101;-76
2023/05/11 07:06:54;;;;;;;3.13;1.02;;;13.10;74.70;;;;;;5075835;28;20115;-76
2023/05/11 07:09:20;;;;;;;1.40;0.85;;;13.40;74.80;;;;;;5093833;28;20016;-76
2023/05/11 07:11:45;;;;;;;2.00;1.00;;;13.60;71.80;;;;;;5075907;28;20134;-76
2023/05/11 07:14:11;;;;;;;2.05;1.30;;;13.60;70.10;;;;;;5093964;28;20099;-76
2023/05/11 07:16:37;;;;;;;3.55;0.90;;;13.50;69.80;;;;;;5093944;28;20058;-76
2023/05/11 07:19:04;;;;;;;2.42;0.95;;;13.30;70.60;;;;;;5093826;28;20024;-76
2023/05/11 07:21:31;;;;;;;1.70;1.25;;;13.40;70.10;;;;;;5094152;28;20031;-77
2023/05/11 07:23:57;;;;;;;3.63;1.58;;;13.30;70.70;;;;;;5093564;28;20073;-76
2023/05/11 07:26:22;;;;;;;3.33;1.13;;;13.20;70.50;;;;;;5093478;28;20020;-75
2023/05/11 07:28:48;;;;;;;2.10;1.08;;;13.10;70.50;;;;;;5075620;28;20024;-75
2023/05/11 07:31:13;;;;;;;1.23;0.70;;;12.70;72.20;;;;;;5093496;28;20024;-75
2023/05/11 07:33:39;;;;;;;2.03;1.05;;;12.60;73.50;;;;;;5093115;28;20027;-74
2023/05/11 07:36:06;;;;;;;4.05;2.60;;;12.60;73.90;;;;;;5092936;28;20492;-72
2023/05/11 07:38:31;;;;;;;2.55;1.17;;;12.70;73.40;;;;;;5093250;28;20515;-73
2023/05/11 07:40:57;;;;;;;2.28;1.00;;;12.50;72.50;;;;;;5074747;28;20128;-74
2023/05/11 07:43:23;;;;;;;10.02;5.25;;;12.30;74.90;;;;;;5093067;28;20091;-81
2023/05/11 07:45:50;;;;;;;14.98;8.73;;;12.30;75.10;;;;;;5099651;28;20460;-76
2023/05/11 07:48:16;;;;;;;19.42;12.10;;;12.40;74.50;;;;;;5080563;28;20051;-73
2023/05/11 07:50:42;;;;;;;4.65;2.28;;;12.40;74.80;;;;;;5101231;28;20028;-74
2023/05/11 07:53:08;;;;;;;9.80;6.00;;;12.40;74.50;;;;;;5092563;28;20031;-77
2023/05/11 07:55:34;;;;;;;5.55;2.88;;;12.30;75.20;;;;;;5093483;28;20024;-77
2023/05/11 07:57:59;;;;;;;4.10;2.05;;;12.30;75.50;;;;;;5109134;28;20028;-82
2023/05/11 08:00:25;;;;;;;3.13;1.52;;;12.40;75.20;;;;;;5094152;28;20028;-81
2023/05/11 08:02:51;;;;;;;2.25;1.23;;;12.50;74.50;;;;;;5094581;28;20020;-80
2023/05/11 08:05:18;;;;;;;3.80;1.10;;;12.60;74.00;;;;;;5094400;28;20035;-78
2023/05/11 08:07:44;;;;;;;1.35;1.17;;;12.60;74.70;;;;;;5094948;28;20020;-78
2023/05/11 08:10:10;;;;;;;2.00;1.27;;;12.80;74.50;;;;;;5076124;28;20016;-82
2023/05/11 08:12:36;;;;;;;1.50;1.00;;;12.80;74.00;;;;;;5095019;28;20043;-73
2023/05/11 08:15:02;;;;;;;1.27;0.93;;;12.80;74.00;;;;;;5094475;28;20035;-77
2023/05/11 08:17:29;;;;;;;1.50;0.90;;;12.90;74.20;;;;;;5094829;28;20441;-86
2023/05/11 08:19:55;;;;;;;3.20;0.90;;;13.00;74.20;;;;;;5094367;28;20040;-80
2023/05/11 08:22:20;;;;;;;2.83;1.30;;;13.10;74.10;;;;;;5093937;28;20017;-73
2023/05/11 08:24:46;;;;;;;4.78;1.17;;;13.00;75.00;;;;;;5092859;28;20025;-73
2023/05/11 08:27:13;;;;;;;5.18;1.50;;;13.10;74.30;;;;;;5092850;28;20020;-73
2023/05/11 08:29:38;;;;;;;2.42;1.20;;;13.10;74.40;;;;;;5092827;28;20028;-73
2023/05/11 08:32:04;;;;;;;2.83;1.10;;;13.10;75.20;;;;;;5091417;28;20026;-73
2023/05/11 08:34:29;;;;;;;3.10;1.80;;;13.10;75.80;;;;;;5092738;28;20383;-73
2023/05/11 08:36:55;;;;;;;1.63;1.17;;;13.20;76.40;;;;;;5074618;28;20048;-74
2023/05/11 08:39:21;;;;;;;2.40;1.52;;;13.10;76.40;;;;;;5092769;28;20123;-73
2023/05/11 08:41:48;;;;;;;1.55;1.20;;;13.10;76.50;;;;;;5092471;28;20020;-73
2023/05/11 08:44:15;;;;;;;3.35;1.25;;;13.10;76.40;;;;;;5092718;28;20028;-73
2023/05/11 08:46:43;;;;;;;3.30;2.25;;;13.10;76.80;;;;;;5091785;28;20021;-73
2023/05/11 08:49:08;;;;;;;2.55;1.70;;;13.00;76.80;;;;;;5072037;28;20476;-76
2023/05/11 08:51:34;;;;;;;3.78;1.83;;;13.00;77.10;;;;;;5091494;28;20032;-72
2023/05/11 08:53:59;;;;;;;2.60;1.30;;;13.00;77.10;;;;;;5092399;28;20409;-73
2023/05/11 08:56:28;;;;;;;4.03;1.20;;;13.00;77.30;;;;;;5092382;28;20024;-73
2023/05/11 08:58:55;;;;;;;2.50;1.20;;;13.00;77.70;;;;;;5092283;28;20036;-72
2023/05/11 09:01:22;;;;;;;1.50;1.00;;;13.00;77.70;;;;;;5092348;28;20032;-72
2023/05/11 09:03:48;;;;;;;1.88;0.98;;;12.90;78.00;;;;;;5092535;28;20016;-73
2023/05/11 09:06:15;;;;;;;2.70;1.23;;;12.90;78.00;;;;;;5078056;28;20118;-73
2023/05/11 09:08:42;;;;;;;2.88;1.00;;;13.00;77.90;;;;;;5096246;28;20118;-73
2023/05/11 09:11:09;;;;;;;4.45;1.27;;;12.90;77.80;;;;;;5096071;28;20085;-73
2023/05/11 09:13:35;;;;;;;1.75;1.30;;;12.90;77.40;;;;;;5096235;28;20043;-74
2023/05/11 09:16:01;;;;;;;1.42;1.02;;;12.90;77.00;;;;;;5096360;28;20468;-72
2023/05/11 09:18:26;;;;;;;0.80;0.70;;;12.60;77.00;;;;;;5096187;28;20020;-73
2023/05/11 09:20:52;;;;;;;1.42;1.00;;;12.60;76.80;;;;;;5096029;28;20495;-73
2023/05/11 09:23:25;;;;;;;1.23;1.00;;;12.30;78.40;;;;;;5095988;28;20417;-73
2023/05/11 09:25:51;;;;;;;3.53;1.65;;;12.10;78.80;;;;;;5096002;28;20487;-73
2023/05/11 09:28:20;;;;;;;2.67;1.40;;;12.10;79.30;;;;;;5095847;28;20099;-73
2023/05/11 09:30:46;;;;;;;2.13;1.45;;;12.00;79.90;;;;;;5095664;28;20460;-73
2023/05/11 09:33:21;;;;;;;3.33;1.30;;;11.90;80.40;;;;;;5094639;28;20069;-73
2023/05/11 09:35:47;;;;;;;2.85;1.00;;;11.90;81.10;;;;;;5095378;28;20148;-73
2023/05/11 09:38:14;;;;;;;1.40;0.70;;;11.80;81.40;;;;;;5095467;28;20085;-73
2023/05/11 09:40:48;;;;;;;2.78;1.25;;;11.90;81.60;;;;;;5095410;28;20105;-73
2023/05/11 09:43:18;;;;;;;1.67;1.10;;;12.00;82.00;;;;;;5095571;28;20020;-73
2023/05/11 09:45:45;;;;;;;3.58;1.15;;;12.10;82.20;;;;;;5095486;28;20515;-74
2023/05/11 09:48:20;;;;;;;1.50;0.80;;;12.10;82.30;;;;;;5095287;28;20060;-74
2023/05/11 09:50:47;;;;;;;1.85;1.23;;;12.30;82.00;;;;;;5095233;28;20020;-73
2023/05/11 09:53:13;;;;;;;1.73;1.00;;;12.40;81.50;;;;;;5095352;28;20059;-74
2023/05/11 09:55:53;;;;;;;1.70;0.90;;;12.30;81.40;;;;;;5095333;28;20560;-74
2023/05/11 09:58:19;;;;;;;1.35;0.73;;;12.30;81.00;;;;;;5076838;28;20024;-77
2023/05/11 10:00:52;;;;;;;2.58;1.40;;;12.10;81.20;;;;;;5094631;28;20361;-74
2023/05/11 10:03:18;;;;;;;1.33;0.80;;;12.10;81.90;;;;;;5095083;28;20469;-74
2023/05/11 10:06:00;;;;;;;2.13;0.70;;;12.10;81.80;;;;;;5095054;28;20070;-74
2023/05/11 10:08:30;;;;;;;1.98;0.85;;;12.20;81.40;;;;;;5094851;28;20021;-74
2023/05/11 10:10:57;;;;;;;1.02;0.80;;;12.30;81.70;;;;;;5094428;28;20031;-74
2023/05/11 10:13:26;;;;;;;0.88;0.88;;;12.50;81.80;;;;;;5094826;28;20023;-73
2023/05/11 10:15:54;;;;;;;2.72;1.30;;;12.60;81.60;;;;;;5093698;28;20021;-74
2023/05/11 10:18:20;;;;;;;1.52;1.05;;;12.70;79.70;;;;;;5094735;28;20020;-75
2023/05/11 10:20:46;;;;;;;2.17;0.60;;;12.70;78.80;;;;;;5094850;28;20043;-75
2023/05/11 10:23:13;;;;;;;1.33;0.77;;;12.80;78.40;;;;;;5093824;28;20016;-75
2023/05/11 10:25:39;;;;;;;2.50;0.73;;;12.80;78.60;;;;;;5094620;28;20024;-75
2023/05/11 10:28:05;;;;;;;1.15;0.90;;;13.00;78.30;;;;;;5094437;28;20039;-77
2023/05/11 10:30:33;;;;;;;3.03;2.05;;;13.10;78.00;;;;;;5094633;28;20020;-74
2023/05/11 10:33:00;;;;;;;1.55;0.80;;;13.30;76.40;;;;;;5094483;28;20020;-76
2023/05/11 10:35:27;;;;;;;1.02;0.50;;;13.50;76.90;;;;;;5094338;28;20044;-75
2023/05/11 10:37:53;;;;;;;0.60;0.60;;;13.90;75.00;;;;;;5094623;28;20449;-77
2023/05/11 10:40:19;;;;;;;0.80;0.60;;;14.20;73.60;;;;;;5097540;28;20032;-75
2023/05/11 10:43:07;;;;;;;3.20;0.55;;;14.60;73.80;;;;;;5094624;28;20023;-75
2023/05/11 10:45:51;;;;;;;2.05;0.20;;;15.00;70.00;;;;;;5094479;28;20103;-74
2023/05/11 10:48:42;;;;;;;0.68;0.30;;;15.30;68.50;;;;;;5093926;28;20115;-74
2023/05/11 10:51:27;;;;;;;0.73;0.40;;;15.60;68.20;;;;;;5093591;28;20016;-77
2023/05/11 10:53:58;;;;;;;1.08;0.40;;;15.90;66.70;;;;;;5093303;28;20073;-75
2023/05/11 10:56:52;;;;;;;2.20;0.40;;;16.20;64.70;;;;;;5093664;28;20048;-76
2023/05/11 10:59:37;;;;;;;2.33;0.50;;;16.50;63.10;;;;;;5093376;28;20597;-74
2023/05/11 11:02:03;;;;;;;0.50;0.30;;;16.70;63.00;;;;;;5093253;28;20048;-76
2023/05/11 11:04:47;;;;;;;1.00;0.70;;;16.80;63.40;;;;;;5093619;28;20063;-77
2023/05/11 11:07:16;;;;;;;1.77;0.65;;;17.00;63.30;;;;;;5075290;28;20016;-75
2023/05/11 11:09:49;;;;;;;0.68;0.40;;;16.90;63.40;;;;;;5093673;28;20020;-74
2023/05/11 11:12:15;;;;;;;1.63;0.60;;;16.80;63.60;;;;;;5093325;28;20085;-75
2023/05/11 11:15:05;;;;;;;0.50;0.43;;;16.60;64.00;;;;;;5093774;28;20413;-74
2023/05/11 11:17:33;;;;;;;0.57;0.40;;;16.40;64.40;;;;;;5093078;28;20016;-75
2023/05/11 11:20:07;;;;;;;0.40;0.40;;;16.10;64.80;;;;;;5093202;28;20119;-75
2023/05/11 11:22:40;;;;;;;1.80;0.70;;;15.90;65.30;;;;;;5074813;28;20384;-74
2023/05/11 11:25:07;;;;;;;1.30;0.88;;;15.80;66.20;;;;;;5093004;28;20069;-76
2023/05/11 11:27:57;;;;;;;0.65;0.60;;;15.70;65.80;;;;;;5092739;28;20027;-75
2023/05/11 11:30:29;;;;;;;2.10;1.17;;;15.60;67.10;;;;;;5080486;28;20028;-73
2023/05/11 11:33:15;;;;;;;1.63;1.10;;;15.60;65.70;;;;;;5092956;28;20058;-74
2023/05/11 11:35:40;;;;;;;3.53;0.80;;;15.70;66.40;;;;;;5092686;28;20051;-76
2023/05/11 11:38:10;;;;;;;1.40;0.63;;;15.70;64.50;;;;;;5074855;28;20024;-81
2023/05/11 11:40:40;;;;;;;0.90;0.60;;;15.80;65.60;;;;;;5075382;28;20388;-77
2023/05/11 11:43:16;;;;;;;3.53;0.80;;;15.90;64.40;;;;;;5074396;28;20115;-77
2023/05/11 11:45:54;;;;;;;1.25;0.70;;;16.00;64.60;;;;;;5093200;28;20111;-75
2023/05/11 11:48:29;;;;;;;0.93;0.60;;;16.00;63.90;;;;;;5074401;28;20447;-76
2023/05/11 11:51:10;;;;;;;3.92;0.63;;;16.00;64.00;;;;;;5092835;28;20023;-75
2023/05/11 11:53:40;;;;;;;1.73;0.70;;;16.00;63.90;;;;;;5092955;28;20073;-76
2023/05/11 11:56:14;;;;;;;2.58;0.40;;;16.10;64.10;;;;;;5093042;28;20065;-75
2023/05/11 11:58:45;;;;;;;1.00;0.40;;;16.20;64.30;;;;;;5092901;28;20058;-75
2023/05/11 12:01:12;;;;;;;2.20;0.40;;;16.20;62.10;;;;;;5093056;28;20553;-75
2023/05/11 12:03:40;;;;;;;2.97;0.65;;;16.10;63.00;;;;;;5093051;28;20134;-75
2023/05/11 12:06:07;;;;;;;1.42;0.80;;;16.20;63.60;;;;;;5093132;28;20075;-75
2023/05/11 12:08:35;;;;;;;1.20;0.35;;;16.20;63.30;;;;;;5093079;28;20100;-75
2023/05/11 12:11:01;;;;;;;1.63;0.40;;;16.40;62.80;;;;;;5092850;28;20084;-75
2023/05/11 12:13:27;;;;;;;0.52;0.20;;;16.60;62.70;;;;;;5092983;28;20099;-75
2023/05/11 12:16:10;;;;;;;2.88;0.20;;;16.60;62.30;;;;;;5092996;28;20024;-75
2023/05/11 12:18:35;;;;;;;0.30;0.30;;;16.70;60.20;;;;;;5092942;28;20032;-76
2023/05/11 12:21:01;;;;;;;1.65;0.65;;;16.80;60.90;;;;;;5093184;28;20531;-75
2023/05/11 12:23:28;;;;;;;0.70;0.30;;;16.80;59.70;;;;;;5092866;28;20590;-75
2023/05/11 12:26:05;;;;;;;1.10;0.40;;;16.90;57.50;;;;;;5074604;28;20210;-76
2023/05/11 12:28:32;;;;;;;1.58;0.57;;;16.90;56.70;;;;;;5092975;28;20020;-74
2023/05/11 12:30:57;;;;;;;1.25;0.35;;;17.00;57.50;;;;;;5093037;28;20028;-75
2023/05/11 12:33:23;;;;;;;0.40;0.40;;;17.20;57.10;;;;;;5092913;28;20028;-74
2023/05/11 12:35:56;;;;;;;0.70;0.55;;;17.40;55.50;;;;;;5092648;28;20606;-74
2023/05/11 12:38:22;;;;;;;0.30;0.20;;;17.50;54.20;;;;;;5092539;28;20488;-74
2023/05/11 12:40:49;;;;;;;0.10;0.10;;;17.40;52.00;;;;;;5095990;28;20039;-74
2023/05/11 12:43:20;;;;;;;0.90;0.30;;;17.50;51.80;;;;;;5096822;28;20052;-74
2023/05/11 12:45:46;;;;;;;0.73;0.20;;;17.50;52.70;;;;;;5096807;28;20170;-73
2023/05/11 12:48:12;;;;;;;1.13;0.55;;;17.40;54.30;;;;;;5096914;28;20482;-74
2023/05/11 12:50:45;;;;;;;1.77;1.33;;;17.40;54.70;;;;;;5096812;28;20018;-74
2023/05/11 12:53:18;;;;;;;0.52;0.20;;;17.30;54.70;;;;;;5096724;28;20396;-73